Time;durP1;ratioP1;P1;durP2;ratioP2;P2;SDS_P1;SDS_P2;PMS_P1;PMS_P2;Temp;Humidity;BMP_temperature;BMP_pressure;BME280_temperature;BME280_humidity;BME280_pressure;Samples;Min_cycle;Max_cycle;Signal;HPM_P1;HPM_P2
2023/11/11 00:00:49;;;;;;;1.30;0.90;;;;;;;6.35;100.00;152991.06;4990580;28;20503;-75
2023/11/11 00:03:17;;;;;;;1.80;0.77;;;;;;;6.37;100.00;152996.22;4992227;28;20466;-75
2023/11/11 00:05:43;;;;;;;1.83;0.67;;;;;;;6.37;100.00;152996.22;4986641;28;20452;-75
2023/11/11 00:08:10;;;;;;;1.50;1.10;;;;;;;6.34;100.00;152988.47;4995164;28;20473;-75
2023/11/11 00:10:38;;;;;;;1.00;0.60;;;;;;;6.35;100.00;152992.38;4991250;28;20465;-75
2023/11/11 00:13:04;;;;;;;1.23;0.60;;;;;;;6.35;100.00;152991.06;4983126;28;20460;-76
2023/11/11 00:15:33;;;;;;;1.77;0.60;;;;;;;6.34;100.00;152989.78;4992689;28;20488;-75
2023/11/11 00:18:00;;;;;;;1.00;0.60;;;;;;;6.33;100.00;152985.91;4984292;28;20967;-75
2023/11/11 00:20:27;;;;;;;1.17;0.60;;;;;;;6.32;100.00;152984.63;4975264;28;20507;-75
2023/11/11 00:22:54;;;;;;;1.17;0.80;;;;;;;6.30;100.00;152979.41;4996305;28;20495;-76
2023/11/11 00:25:22;;;;;;;2.80;1.00;;;;;;;6.30;100.00;152978.16;4977586;28;20460;-75
2023/11/11 00:27:51;;;;;;;0.93;0.70;;;;;;;6.27;100.00;152971.72;4974944;28;20489;-75
2023/11/11 00:30:19;;;;;;;1.60;0.80;;;;;;;6.27;100.00;152970.41;4988665;28;20446;-75
2023/11/11 00:32:50;;;;;;;1.23;0.90;;;;;;;6.29;100.00;152975.56;4974911;28;20998;-75
2023/11/11 00:35:16;;;;;;;1.47;0.70;;;;;;;6.25;100.00;152966.53;4974451;28;20480;-74
2023/11/11 00:37:45;;;;;;;1.50;0.80;;;;;;;6.25;100.00;152965.28;4956070;28;21078;-75
2023/11/11 00:40:12;;;;;;;1.20;0.70;;;;;;;6.27;100.00;152970.41;4995081;28;20531;-75
2023/11/11 00:42:38;;;;;;;1.03;0.60;;;;;;;6.25;100.00;152965.28;4974762;28;20453;-75
2023/11/11 00:45:07;;;;;;;1.43;0.63;;;;;;;6.26;100.00;152967.81;4974563;28;20456;-75
2023/11/11 00:47:34;;;;;;;2.57;0.70;;;;;;;6.25;100.00;152965.28;4967111;28;20493;-75
2023/11/11 00:50:01;;;;;;;0.90;0.60;;;;;;;6.22;100.00;152957.53;4985771;28;21006;-74
2023/11/11 00:52:27;;;;;;;1.10;0.67;;;;;;;6.22;100.00;152957.53;4992306;28;20457;-75
2023/11/11 00:54:54;;;;;;;1.37;0.70;;;;;;;6.22;100.00;152957.53;4971819;28;20541;-76
2023/11/11 00:57:20;;;;;;;1.17;0.80;;;;;;;6.22;100.00;152957.53;4960895;28;20457;-75
2023/11/11 00:59:47;;;;;;;1.40;1.07;;;;;;;6.23;100.00;152960.06;4968214;28;20457;-75
2023/11/11 01:02:15;;;;;;;1.00;0.70;;;;;;;6.23;100.00;152960.06;4992289;28;20547;-75
2023/11/11 01:04:41;;;;;;;1.50;0.80;;;;;;;6.24;100.00;152962.66;4966896;28;20458;-74
2023/11/11 01:07:08;;;;;;;1.40;0.60;;;;;;;6.23;100.00;152960.06;4957720;28;20482;-76
2023/11/11 01:09:34;;;;;;;0.80;0.40;;;;;;;6.23;100.00;152961.38;4956717;28;20464;-75
2023/11/11 01:12:01;;;;;;;1.33;0.70;;;;;;;6.25;100.00;152966.53;4986353;28;20459;-75
2023/11/11 01:14:30;;;;;;;1.17;0.67;;;;;;;6.26;100.00;152969.13;4970913;28;20793;-76
2023/11/11 01:16:57;;;;;;;1.00;0.60;;;;;;;6.23;100.00;152961.38;4989162;28;20445;-75
2023/11/11 01:19:25;;;;;;;0.90;0.53;;;;;;;6.24;100.00;152962.66;4973575;28;20452;-74
2023/11/11 01:21:52;;;;;;;1.10;0.73;;;;;;;6.23;100.00;152960.06;4976591;28;20866;-75
2023/11/11 01:24:19;;;;;;;1.20;0.80;;;;;;;6.22;100.00;152957.53;4969315;28;20839;-75
2023/11/11 01:26:46;;;;;;;1.03;0.60;;;;;;;6.22;100.00;152958.81;4954199;28;21162;-76
2023/11/11 01:29:12;;;;;;;2.30;0.90;;;;;;;6.24;100.00;152962.66;4990902;28;20449;-76
2023/11/11 01:31:39;;;;;;;1.00;0.50;;;;;;;6.25;100.00;152966.53;4989540;28;20511;-75
2023/11/11 01:34:07;;;;;;;1.17;0.80;;;;;;;6.28;100.00;152972.97;4974215;28;20815;-75
2023/11/11 01:36:34;;;;;;;1.47;1.00;;;;;;;6.29;100.00;152976.88;4969202;28;20540;-76
2023/11/11 01:39:01;;;;;;;1.20;0.80;;;;;;;6.28;100.00;152974.28;4975504;28;20450;-75
2023/11/11 01:41:28;;;;;;;1.17;0.87;;;;;;;6.30;100.00;152979.41;4944049;28;20462;-76
2023/11/11 01:43:54;;;;;;;1.10;0.73;;;;;;;6.32;100.00;152983.31;4935799;29;20466;-76
2023/11/11 01:46:21;;;;;;;2.50;0.60;;;;;;;6.36;100.00;152993.63;4964508;28;20450;-76
2023/11/11 01:48:48;;;;;;;1.13;0.73;;;;;;;6.37;100.00;152996.22;4962103;28;20481;-75
2023/11/11 01:51:15;;;;;;;1.03;0.63;;;;;;;6.37;100.00;152996.22;4955584;28;20451;-74
2023/11/11 01:53:43;;;;;;;0.90;0.40;;;;;;;6.39;100.00;153001.38;4970585;28;20474;-75
2023/11/11 01:56:13;;;;;;;0.80;0.50;;;;;;;6.40;100.00;153003.97;4983996;28;20546;-75
2023/11/11 01:58:41;;;;;;;1.00;0.70;;;;;;;6.42;100.00;153009.13;4964406;28;20451;-75
2023/11/11 02:01:09;;;;;;;0.90;0.57;;;;;;;6.44;100.00;153014.28;4953439;28;20458;-75
2023/11/11 02:03:36;;;;;;;0.90;0.50;;;;;;;6.44;100.00;153014.28;4970215;28;20462;-75
2023/11/11 02:06:02;;;;;;;0.90;0.60;;;;;;;6.45;100.00;153016.88;4966589;28;20466;-75
2023/11/11 02:08:31;;;;;;;2.30;0.70;;;;;;;6.46;100.00;153019.47;4954043;28;20486;-75
2023/11/11 02:10:59;;;;;;;0.90;0.50;;;;;;;6.46;100.00;153019.47;4954563;28;20866;-75
2023/11/11 02:13:29;;;;;;;0.90;0.60;;;;;;;6.48;100.00;153024.63;4971992;28;20458;-75
2023/11/11 02:15:56;;;;;;;0.80;0.50;;;;;;;6.46;100.00;153019.47;4968512;28;20449;-75
2023/11/11 02:18:23;;;;;;;1.00;0.60;;;;;;;6.48;100.00;153024.63;4968503;28;20454;-74
2023/11/11 02:20:49;;;;;;;0.93;0.50;;;;;;;6.47;100.00;153022.00;4944480;28;20570;-75
2023/11/11 02:23:17;;;;;;;1.00;0.60;;;;;;;6.48;100.00;153024.63;4962992;28;20477;-75
2023/11/11 02:25:45;;;;;;;0.90;0.60;;;;;;;6.45;100.00;153018.16;4969971;28;20820;-75
2023/11/11 02:28:11;;;;;;;2.07;0.60;;;;;;;6.42;100.00;153009.13;4967514;28;20820;-75
2023/11/11 02:30:38;;;;;;;0.70;0.30;;;;;;;6.42;100.00;153010.41;4968261;28;20450;-75
2023/11/11 02:33:05;;;;;;;1.30;0.60;;;;;;;6.42;100.00;153009.13;4975066;28;20462;-75
2023/11/11 02:35:31;;;;;;;0.90;0.50;;;;;;;6.43;100.00;153011.72;4968932;28;21074;-75
2023/11/11 02:37:58;;;;;;;0.90;0.40;;;;;;;6.40;100.00;153003.97;4962802;28;20479;-76
2023/11/11 02:40:24;;;;;;;0.80;0.30;;;;;;;6.39;100.00;153002.66;4976531;28;20525;-74
2023/11/11 02:42:53;;;;;;;0.80;0.43;;;;;;;6.35;100.00;152992.38;4967488;28;20993;-74
2023/11/11 02:45:20;;;;;;;1.00;0.50;;;;;;;6.37;100.00;152997.53;4974193;28;20458;-75
2023/11/11 02:47:46;;;;;;;0.80;0.30;;;;;;;6.33;100.00;152985.91;4969766;28;20493;-75
2023/11/11 02:50:13;;;;;;;1.00;0.30;;;;;;;6.30;100.00;152978.16;4973290;28;20454;-75
2023/11/11 02:52:39;;;;;;;1.00;0.30;;;;;;;6.27;100.00;152970.41;4966480;28;20501;-75
2023/11/11 02:55:07;;;;;;;1.67;0.30;;;;;;;6.24;100.00;152963.97;4962176;28;21171;-75
2023/11/11 02:57:33;;;;;;;0.80;0.40;;;;;;;6.22;100.00;152957.53;4982908;28;20462;-75
2023/11/11 03:00:02;;;;;;;1.20;0.60;;;;;;;6.17;100.00;152945.88;4951876;28;21096;-75
2023/11/11 03:02:28;;;;;;;0.70;0.30;;;;;;;6.16;100.00;152942.03;4966110;28;20458;-74
2023/11/11 03:04:55;;;;;;;3.80;0.60;;;;;;;6.16;100.00;152943.31;4959845;28;20454;-74
2023/11/11 03:07:21;;;;;;;1.00;0.40;;;;;;;6.16;100.00;152942.03;4960985;28;20876;-75
2023/11/11 03:09:48;;;;;;;0.90;0.40;;;;;;;6.16;100.00;152942.03;4963701;28;20459;-75
2023/11/11 03:12:14;;;;;;;0.70;0.30;;;;;;;6.14;100.00;152938.19;4982141;28;20469;-75
2023/11/11 03:14:41;;;;;;;2.50;0.80;;;;;;;6.17;100.00;152944.63;4988215;28;20441;-74
2023/11/11 03:17:09;;;;;;;1.10;0.60;;;;;;;6.19;100.00;152949.78;4965512;28;20958;-75
2023/11/11 03:19:35;;;;;;;1.10;0.53;;;;;;;6.19;100.00;152949.78;4963923;28;20485;-75
2023/11/11 03:22:02;;;;;;;1.40;0.90;;;;;;;6.21;100.00;152954.94;4968681;28;20454;-74
2023/11/11 03:24:30;;;;;;;0.90;0.70;;;;;;;6.22;100.00;152957.53;4957756;28;20445;-75
2023/11/11 03:26:57;;;;;;;0.80;0.50;;;;;;;6.24;100.00;152962.66;4963529;28;20451;-75
2023/11/11 03:29:23;;;;;;;1.07;0.70;;;;;;;6.26;100.00;152967.81;4970329;28;20485;-75
2023/11/11 03:31:50;;;;;;;1.00;0.60;;;;;;;6.27;100.00;152970.41;4967733;28;20476;-75
2023/11/11 03:34:18;;;;;;;1.20;0.80;;;;;;;6.30;100.00;152978.16;4968578;28;20501;-75
2023/11/11 03:36:44;;;;;;;1.60;1.13;;;;;;;6.29;100.00;152975.56;4967752;28;20474;-75
2023/11/11 03:39:11;;;;;;;1.40;0.83;;;;;;;6.29;100.00;152975.56;4966690;28;20454;-75
2023/11/11 03:41:37;;;;;;;0.90;0.60;;;;;;;6.30;100.00;152979.41;4981018;28;20462;-75
2023/11/11 03:44:05;;;;;;;1.67;0.90;;;;;;;6.32;100.00;152983.31;4969206;28;20454;-75
2023/11/11 03:46:31;;;;;;;1.10;0.60;;;;;;;6.32;100.00;152984.63;4966236;28;20466;-74
2023/11/11 03:48:58;;;;;;;1.40;0.80;;;;;;;6.35;100.00;152992.38;4972648;28;20478;-74
2023/11/11 03:51:25;;;;;;;1.70;0.87;;;;;;;6.37;100.00;152996.22;4973746;28;20477;-74
2023/11/11 03:53:52;;;;;;;1.80;1.00;;;;;;;6.34;100.00;152989.78;4950298;28;20450;-74
2023/11/11 03:56:19;;;;;;;1.40;0.90;;;;;;;6.36;100.00;152994.91;4963418;28;20541;-74
2023/11/11 03:58:45;;;;;;;1.40;0.90;;;;;;;6.35;100.00;152992.38;4992432;28;20478;-74
2023/11/11 04:01:12;;;;;;;2.23;1.00;;;;;;;6.36;100.00;152993.63;4962136;28;20510;-74
2023/11/11 04:03:39;;;;;;;1.40;0.90;;;;;;;6.36;100.00;152993.63;4950842;28;20555;-74
2023/11/11 04:06:09;;;;;;;1.77;0.90;;;;;;;6.34;100.00;152988.47;4951324;28;20510;-74
2023/11/11 04:08:37;;;;;;;1.67;1.00;;;;;;;6.30;100.00;152979.41;4968722;28;20478;-74
2023/11/11 04:11:07;;;;;;;1.20;0.80;;;;;;;6.31;100.00;152980.72;4969505;28;20820;-74
2023/11/11 04:13:34;;;;;;;1.53;0.80;;;;;;;6.30;100.00;152979.41;4978379;28;20470;-74
2023/11/11 04:16:03;;;;;;;1.43;1.03;;;;;;;6.29;100.00;152975.56;4949896;28;20455;-74
2023/11/11 04:18:32;;;;;;;1.70;0.90;;;;;;;6.28;100.00;152972.97;4966826;28;20465;-74
2023/11/11 04:20:59;;;;;;;2.10;1.20;;;;;;;6.28;100.00;152972.97;4968952;28;20961;-74
2023/11/11 04:23:28;;;;;;;1.20;0.73;;;;;;;6.29;100.00;152975.56;4968264;28;20478;-75
2023/11/11 04:25:56;;;;;;;1.57;0.97;;;;;;;6.26;100.00;152967.81;4968451;28;20465;-74
2023/11/11 04:28:23;;;;;;;1.60;0.77;;;;;;;6.25;100.00;152965.28;4947797;28;20531;-74
2023/11/11 04:30:49;;;;;;;1.77;1.10;;;;;;;6.27;100.00;152970.41;4969815;28;21121;-74
2023/11/11 04:33:17;;;;;;;1.90;1.00;;;;;;;6.23;100.00;152960.06;4969317;28;20462;-74
2023/11/11 04:35:43;;;;;;;1.63;0.83;;;;;;;6.23;100.00;152960.06;4970534;28;21074;-74
2023/11/11 04:38:10;;;;;;;1.10;0.77;;;;;;;6.21;100.00;152954.94;4968871;28;20853;-74
2023/11/11 04:40:37;;;;;;;3.70;1.03;;;;;;;6.20;100.00;152952.31;4973575;28;20827;-75
2023/11/11 04:43:05;;;;;;;2.13;1.00;;;;;;;6.17;100.00;152945.88;4973352;28;20955;-75
2023/11/11 04:45:32;;;;;;;1.80;1.00;;;;;;;6.16;100.00;152942.03;4986427;28;20901;-75
2023/11/11 04:47:59;;;;;;;1.47;1.20;;;;;;;6.16;100.00;152942.03;4969171;28;20494;-75
2023/11/11 04:50:26;;;;;;;1.30;1.10;;;;;;;6.15;100.00;152940.72;4971080;28;20451;-75
2023/11/11 04:52:53;;;;;;;2.23;1.00;;;;;;;6.14;100.00;152939.44;4973200;28;20541;-75
2023/11/11 04:55:19;;;;;;;1.43;1.17;;;;;;;6.16;100.00;152942.03;4968703;28;20450;-75
2023/11/11 04:57:46;;;;;;;2.20;1.37;;;;;;;6.15;100.00;152940.72;4984525;28;21038;-75
2023/11/11 05:00:15;;;;;;;1.57;1.33;;;;;;;6.13;100.00;152936.88;4969942;28;20567;-75
2023/11/11 05:02:43;;;;;;;2.20;1.30;;;;;;;6.13;100.00;152936.88;4968730;28;20461;-74
2023/11/11 05:05:10;;;;;;;1.53;1.00;;;;;;;6.13;100.00;152935.59;4968124;28;20477;-75
2023/11/11 05:07:38;;;;;;;2.03;1.40;;;;;;;6.12;100.00;152934.28;4969443;28;20462;-75
2023/11/11 05:10:07;;;;;;;2.00;1.17;;;;;;;6.12;100.00;152934.28;4970420;28;20557;-75
2023/11/11 05:12:35;;;;;;;2.13;1.50;;;;;;;6.12;100.00;152934.28;4971120;28;20448;-74
2023/11/11 05:15:04;;;;;;;2.27;1.70;;;;;;;6.11;100.00;152931.72;4971053;28;20489;-75
2023/11/11 05:17:32;;;;;;;2.17;1.47;;;;;;;6.10;100.00;152929.13;4982927;28;20493;-75
2023/11/11 05:19:59;;;;;;;1.60;1.43;;;;;;;6.11;100.00;152930.44;4960936;28;20462;-75
2023/11/11 05:22:26;;;;;;;2.30;1.50;;;;;;;6.09;100.00;152926.53;4959944;28;20462;-75
2023/11/11 05:24:52;;;;;;;2.47;1.23;;;;;;;6.09;100.00;152926.53;4968650;28;20446;-75
2023/11/11 05:27:19;;;;;;;2.03;1.47;;;;;;;6.07;100.00;152920.09;4984189;28;20454;-76
2023/11/11 05:29:45;;;;;;;2.47;1.63;;;;;;;6.05;100.00;152916.25;4969954;28;20541;-76
2023/11/11 05:32:12;;;;;;;1.67;1.43;;;;;;;6.02;100.00;152908.50;4968970;28;20470;-74
2023/11/11 05:34:40;;;;;;;2.30;1.60;;;;;;;5.99;100.00;152900.75;4965985;28;20485;-75
2023/11/11 05:37:06;;;;;;;2.30;1.70;;;;;;;5.98;100.00;152898.16;4975126;28;20496;-75
2023/11/11 05:39:33;;;;;;;2.17;1.50;;;;;;;5.98;100.00;152898.16;4988217;28;20465;-74
2023/11/11 05:41:59;;;;;;;2.47;1.50;;;;;;;5.95;100.00;152890.44;5011280;28;20800;-75
2023/11/11 05:44:26;;;;;;;2.03;1.50;;;;;;;5.93;100.00;152885.25;4988612;28;20456;-75
2023/11/11 05:46:51;;;;;;;2.17;1.47;;;;;;;5.90;100.00;152876.25;4991737;28;20473;-75
2023/11/11 05:49:18;;;;;;;4.10;1.70;;;;;;;5.87;100.00;152869.81;4973898;28;20486;-75
2023/11/11 05:51:46;;;;;;;2.00;1.80;;;;;;;5.86;100.00;152867.22;4975965;28;20607;-74
2023/11/11 05:54:13;;;;;;;3.07;2.03;;;;;;;5.88;100.00;152871.06;4970633;28;21086;-74
2023/11/11 05:56:42;;;;;;;2.50;1.70;;;;;;;5.83;100.00;152859.41;4966146;28;20512;-74
2023/11/11 05:59:08;;;;;;;2.87;1.77;;;;;;;5.84;100.00;152860.72;4984633;28;20444;-74
2023/11/11 06:01:35;;;;;;;2.57;2.30;;;;;;;5.79;100.00;152849.13;4954403;28;20460;-74
2023/11/11 06:04:02;;;;;;;1.90;1.50;;;;;;;5.77;100.00;152843.94;4984196;28;21011;-75
2023/11/11 06:06:28;;;;;;;2.10;1.90;;;;;;;5.74;100.00;152836.22;4987862;28;20453;-74
2023/11/11 06:08:56;;;;;;;2.80;2.30;;;;;;;5.74;100.00;152836.22;4964820;28;20655;-74
2023/11/11 06:11:23;;;;;;;2.47;1.63;;;;;;;5.71;100.00;152828.47;4943984;28;20818;-74
2023/11/11 06:13:56;;;;;;;3.43;2.50;;;;;;;5.69;100.00;152823.34;4967640;28;20453;-75
2023/11/11 06:16:22;;;;;;;4.10;2.20;;;;;;;5.69;100.00;152823.34;4969489;28;20433;-75
2023/11/11 06:18:50;;;;;;;3.60;2.33;;;;;;;5.71;100.00;152828.47;4986860;28;20457;-75
2023/11/11 06:21:17;;;;;;;2.90;2.13;;;;;;;5.69;100.00;152823.34;4963953;28;20912;-74
2023/11/11 06:23:43;;;;;;;4.67;2.20;;;;;;;5.71;100.00;152827.19;4980459;28;20457;-74
2023/11/11 06:26:11;;;;;;;2.80;2.10;;;;;;;5.70;100.00;152825.88;4984143;28;20462;-74
2023/11/11 06:28:37;;;;;;;3.67;2.40;;;;;;;5.71;100.00;152828.47;4969972;28;20485;-75
2023/11/11 06:31:04;;;;;;;2.50;2.30;;;;;;;5.73;100.00;152832.34;4965985;28;20460;-75
2023/11/11 06:33:31;;;;;;;3.03;2.17;;;;;;;5.72;100.00;152831.03;4977206;28;20464;-75
2023/11/11 06:35:58;;;;;;;2.10;1.73;;;;;;;5.73;100.00;152833.63;4982911;28;20458;-75
2023/11/11 06:38:25;;;;;;;2.43;2.07;;;;;;;5.73;100.00;152833.63;4983229;28;20481;-75
2023/11/11 06:40:51;;;;;;;2.90;2.13;;;;;;;5.74;100.00;152836.22;4977555;28;20830;-75
2023/11/11 06:43:22;;;;;;;3.43;2.30;;;;;;;5.75;100.00;152837.47;4980688;28;20450;-75
2023/11/11 06:45:49;;;;;;;3.00;1.73;;;;;;;5.75;100.00;152838.78;4959322;28;20600;-75
2023/11/11 06:48:16;;;;;;;3.23;1.87;;;;;;;5.77;100.00;152843.94;4961570;28;20520;-75
2023/11/11 06:50:43;;;;;;;2.77;2.10;;;;;;;5.77;100.00;152843.94;4981649;28;21076;-75
2023/11/11 06:53:11;;;;;;;2.30;1.90;;;;;;;5.75;100.00;152838.78;4983115;28;20471;-75
2023/11/11 06:55:38;;;;;;;3.00;2.30;;;;;;;5.76;100.00;152840.06;4981580;28;21008;-75
2023/11/11 06:58:06;;;;;;;2.27;1.90;;;;;;;5.76;100.00;152840.06;4980709;28;20453;-75
2023/11/11 07:00:33;;;;;;;2.13;1.90;;;;;;;5.77;100.00;152842.69;4980764;28;20529;-74
2023/11/11 07:03:00;;;;;;;2.50;1.83;;;;;;;5.79;100.00;152847.81;4980993;28;20560;-75
2023/11/11 07:05:27;;;;;;;3.60;1.77;;;;;;;5.79;100.00;152849.13;4964339;28;20459;-75
2023/11/11 07:07:53;;;;;;;3.13;1.90;;;;;;;5.80;100.00;152850.44;4981547;28;20880;-74
2023/11/11 07:10:21;;;;;;;2.70;1.90;;;;;;;5.81;100.00;152854.28;4977553;28;20567;-74
2023/11/11 07:12:48;;;;;;;2.37;1.70;;;;;;;5.84;100.00;152860.72;4981829;28;20445;-74
2023/11/11 07:15:15;;;;;;;3.50;1.50;;;;;;;5.84;100.00;152862.00;4985198;28;20456;-75
2023/11/11 07:17:44;;;;;;;2.87;1.60;;;;;;;5.84;100.00;152862.00;4984983;28;20480;-75
2023/11/11 07:20:12;;;;;;;2.80;1.77;;;;;;;5.84;100.00;152860.72;4982324;28;20449;-75
2023/11/11 07:22:39;;;;;;;3.63;1.50;;;;;;;5.85;100.00;152864.63;4981725;28;20453;-75
2023/11/11 07:25:06;;;;;;;2.67;1.60;;;;;;;5.85;100.00;152864.63;4980841;28;20461;-75
2023/11/11 07:27:33;;;;;;;1.50;1.20;;;;;;;5.83;100.00;152859.41;4978272;28;20450;-75
2023/11/11 07:30:00;;;;;;;1.37;1.10;;;;;;;5.84;100.00;152860.72;4960542;28;20580;-76
2023/11/11 07:32:26;;;;;;;1.80;0.97;;;;;;;5.82;100.00;152856.88;4959762;28;20465;-75
2023/11/11 07:34:54;;;;;;;2.50;1.30;;;;;;;5.79;100.00;152849.13;4961465;28;20504;-75
2023/11/11 07:37:21;;;;;;;1.33;1.00;;;;;;;5.79;100.00;152849.13;4962441;28;20481;-75
2023/11/11 07:39:47;;;;;;;1.47;1.00;;;;;;;5.81;100.00;152852.97;4957779;28;20452;-75
2023/11/11 07:42:17;;;;;;;1.13;1.03;;;;;;;5.81;100.00;152852.97;4980730;28;20899;-75
2023/11/11 07:44:43;;;;;;;1.60;1.00;;;;;;;5.76;100.00;152841.38;4963480;28;20461;-75
2023/11/11 07:47:10;;;;;;;1.90;1.10;;;;;;;5.76;100.00;152841.38;4962204;28;20550;-75
2023/11/11 07:49:37;;;;;;;1.70;1.10;;;;;;;5.75;100.00;152838.78;4981807;28;20564;-75
2023/11/11 07:52:06;;;;;;;1.70;1.20;;;;;;;5.77;100.00;152843.94;4962603;28;20457;-75
2023/11/11 07:54:33;;;;;;;4.23;1.33;;;;;;;5.79;100.00;152849.13;4981598;28;20457;-75
2023/11/11 07:57:00;;;;;;;3.93;1.40;;;;;;;5.75;100.00;152838.78;4966625;28;20561;-75
2023/11/11 07:59:28;;;;;;;1.93;1.23;;;;;;;5.79;100.00;152847.81;4960235;28;20861;-75
2023/11/11 08:01:55;;;;;;;2.03;1.47;;;;;;;5.80;100.00;152850.44;4963209;28;20489;-75
2023/11/11 08:04:22;;;;;;;2.27;1.03;;;;;;;5.81;100.00;152852.97;4978861;28;20462;-75
2023/11/11 08:06:48;;;;;;;5.07;1.67;;;;;;;5.85;100.00;152863.38;4962886;28;20480;-74
2023/11/11 08:09:17;;;;;;;2.73;1.60;;;;;;;5.85;100.00;152864.63;4965272;28;20496;-74
2023/11/11 08:11:44;;;;;;;1.50;1.13;;;;;;;5.87;100.00;152869.81;4960261;28;21819;-75
2023/11/11 08:14:10;;;;;;;1.97;1.40;;;;;;;5.94;100.00;152886.56;4971601;28;20457;-75
2023/11/11 08:16:37;;;;;;;2.37;1.53;;;;;;;5.99;100.00;152900.75;4989852;28;20458;-75
2023/11/11 08:19:04;;;;;;;2.40;1.40;;;;;;;6.09;100.00;152925.22;4987758;28;20543;-74
2023/11/11 08:21:32;;;;;;;2.50;1.40;;;;;;;6.17;100.00;152945.88;4965627;28;21014;-75
2023/11/11 08:23:59;;;;;;;2.97;1.70;;;;;;;6.31;100.00;152980.72;4946873;28;20875;-74
2023/11/11 08:26:27;;;;;;;2.30;1.80;;;;;;;6.42;100.00;153009.13;4983696;28;20456;-75
2023/11/11 08:28:54;;;;;;;1.90;1.60;;;;;;;6.47;100.00;153022.00;4982239;28;20463;-75
2023/11/11 08:31:20;;;;;;;2.83;1.80;;;;;;;6.49;100.00;153027.16;4983872;28;20453;-74
2023/11/11 08:33:47;;;;;;;2.93;1.60;;;;;;;6.47;100.00;153023.31;4983319;28;20489;-74
2023/11/11 08:36:14;;;;;;;2.67;2.07;;;;;;;6.45;100.00;153016.88;4963523;28;20462;-74
2023/11/11 08:38:40;;;;;;;2.53;1.90;;;;;;;6.45;100.00;153016.88;4983982;28;20967;-74
2023/11/11 08:41:08;;;;;;;3.93;2.00;;;;;;;6.47;100.00;153023.31;4981971;28;20453;-75
2023/11/11 08:43:36;;;;;;;2.30;1.67;;;;;;;6.52;100.00;153034.91;4966369;28;20454;-75
2023/11/11 08:50:06;;;;;;;2.33;1.83;;;;;;;6.51;100.00;153032.38;5070412;23;20851;-84
2023/11/11 08:56:13;;;;;;;2.57;1.80;;;;;;;6.51;100.00;153032.38;4978885;28;20484;-84
2023/11/11 08:59:24;;;;;;;2.90;2.30;;;;;;;6.56;100.00;153046.56;4969987;28;20461;-85
2023/11/11 09:01:57;;;;;;;2.43;1.67;;;;;;;6.57;100.00;153047.81;4977453;28;20453;-84
2023/11/11 09:04:24;;;;;;;2.70;2.20;;;;;;;6.60;100.00;153056.88;4992043;28;20464;-83
2023/11/11 09:07:05;;;;;;;2.67;1.90;;;;;;;6.65;100.00;153068.47;4967970;28;20469;-83
2023/11/11 09:13:33;;;;;;;2.70;2.10;;;;;;;6.67;100.00;153073.66;4985815;28;20465;-83
2023/11/11 09:16:02;;;;;;;3.27;2.30;;;;;;;6.68;100.00;153076.22;4987432;28;20554;-83
2023/11/11 09:18:29;;;;;;;2.70;2.07;;;;;;;6.70;100.00;153081.38;4980107;28;20453;-83
2023/11/11 09:20:56;;;;;;;2.80;2.03;;;;;;;6.73;100.00;153089.13;4984687;28;20531;-83
2023/11/11 09:23:23;;;;;;;2.87;2.20;;;;;;;6.71;100.00;153085.28;4955201;28;20477;-83
2023/11/11 09:25:50;;;;;;;4.00;1.93;;;;;;;6.70;100.00;153082.66;4967425;28;20476;-83
2023/11/11 09:28:16;;;;;;;3.47;2.00;;;;;;;6.67;100.00;153073.66;4967612;28;20544;-83
2023/11/11 09:30:43;;;;;;;2.47;1.90;;;;;;;6.58;100.00;153050.41;4966563;28;20481;-83
2023/11/11 09:33:11;;;;;;;3.53;2.20;;;;;;;6.57;100.00;153047.81;4982659;28;20452;-83
2023/11/11 09:35:38;;;;;;;2.70;2.23;;;;;;;6.60;100.00;153055.56;4981728;28;20468;-83
2023/11/11 09:38:04;;;;;;;3.50;2.13;;;;;;;6.63;100.00;153063.31;4964466;28;20464;-84
2023/11/11 09:40:31;;;;;;;2.97;2.47;;;;;;;6.67;100.00;153074.91;4984334;28;20484;-84
2023/11/11 09:42:57;;;;;;;2.70;2.47;;;;;;;6.71;100.00;153083.97;4966281;28;20472;-84
2023/11/11 09:45:24;;;;;;;2.80;2.20;;;;;;;6.76;100.00;153096.88;4964357;28;20519;-84
2023/11/11 09:47:52;;;;;;;3.10;2.13;;;;;;;6.74;100.00;153091.72;4963576;28;20456;-84
2023/11/11 09:50:24;;;;;;;2.77;2.07;;;;;;;6.73;100.00;153090.41;4982400;28;20493;-83
2023/11/11 09:52:52;;;;;;;2.20;2.00;;;;;;;6.72;100.00;153087.81;4977122;28;20449;-83
2023/11/11 09:55:19;;;;;;;2.33;1.87;;;;;;;6.67;100.00;153073.66;4982014;28;20459;-84
2023/11/11 09:57:47;;;;;;;2.77;2.40;;;;;;;6.68;100.00;153076.22;4979366;28;20465;-84
2023/11/11 10:00:15;;;;;;;6.00;3.80;;;;;;;6.73;100.00;153089.13;4965530;28;20457;-84
2023/11/11 10:02:43;;;;;;;5.80;4.17;;;;;;;6.78;100.00;153100.78;4965869;28;20803;-84
2023/11/11 10:05:10;;;;;;;4.90;4.07;;;;;;;6.85;100.00;153118.81;4982168;28;20488;-84
2023/11/11 10:07:38;;;;;;;4.23;3.67;;;;;;;6.87;100.00;153123.97;4965258;28;20464;-84
2023/11/11 10:10:08;;;;;;;2.23;2.03;;;;;;;6.91;100.00;153134.34;4981296;28;20488;-84
2023/11/11 10:12:35;;;;;;;3.00;2.70;;;;;;;6.93;100.00;153140.78;4965717;28;20458;-84
2023/11/11 10:15:04;;;;;;;2.50;1.80;;;;;;;6.97;100.00;153151.09;4968450;28;20560;-83
2023/11/11 10:17:30;;;;;;;2.90;2.50;;;;;;;7.06;100.00;153174.34;4968773;28;20454;-83
2023/11/11 10:19:57;;;;;;;3.17;2.30;;;;;;;7.07;100.00;153175.66;4961118;28;20453;-84
2023/11/11 10:22:24;;;;;;;2.63;2.10;;;;;;;7.10;100.00;153183.34;4976613;28;20441;-84
2023/11/11 10:24:52;;;;;;;2.83;2.00;;;;;;;7.15;100.00;153196.25;4980936;28;20488;-84
2023/11/11 10:27:18;;;;;;;2.00;1.80;;;;;;;7.22;100.00;153214.38;4963900;28;20459;-84
2023/11/11 10:29:45;;;;;;;2.33;1.40;;;;;;;7.23;100.00;153218.22;4980320;28;20481;-83
2023/11/11 10:32:12;;;;;;;2.60;2.40;;;;;;;7.25;100.00;153223.38;4963382;28;20465;-84
2023/11/11 10:34:39;;;;;;;2.97;2.47;;;;;;;7.27;100.00;153228.56;4977146;28;20470;-84
2023/11/11 10:37:06;;;;;;;3.30;2.30;;;;;;;7.29;100.00;153233.72;4981283;28;20445;-84
2023/11/11 10:39:34;;;;;;;2.10;1.67;;;;;;;7.29;100.00;153233.72;4977456;28;20484;-84
2023/11/11 10:42:03;;;;;;;2.33;1.80;;;;;;;7.31;100.00;153238.88;4980739;28;20453;-84
2023/11/11 10:44:30;;;;;;;2.40;2.10;;;;;;;7.36;100.00;153250.50;4963246;28;20502;-84
2023/11/11 10:46:58;;;;;;;2.50;2.00;;;;;;;7.34;100.00;153246.63;4975312;28;21330;-85
2023/11/11 10:49:26;;;;;;;3.17;1.90;;;;;;;7.41;100.00;153262.16;4983106;28;20496;-82
2023/11/11 10:51:53;;;;;;;3.07;2.17;;;;;;;7.42;100.00;153264.69;4979477;28;20845;-83
2023/11/11 10:54:21;;;;;;;2.47;1.40;;;;;;;7.42;100.00;153266.00;4980777;28;20457;-84
2023/11/11 10:56:48;;;;;;;1.43;1.33;;;;;;;7.41;100.00;153262.16;4982294;28;20480;-83
2023/11/11 10:59:18;;;;;;;1.97;1.70;;;;;;;7.40;100.00;153259.53;4980162;28;20963;-83
2023/11/11 11:01:45;;;;;;;2.60;2.00;;;;;;;7.43;100.00;153267.31;4980442;28;20465;-84
2023/11/11 11:04:12;;;;;;;1.97;1.63;;;;;;;7.45;100.00;153272.47;4980581;28;20461;-84
2023/11/11 11:06:43;;;;;;;4.53;2.10;;;;;;;7.44;100.00;153269.91;4982376;28;20481;-83
2023/11/11 11:09:24;;;;;;;3.73;2.53;;;;;;;7.44;100.00;153269.91;4977558;28;20939;-84
2023/11/11 11:12:05;;;;;;;2.77;1.97;;;;;;;7.43;100.00;153268.59;4964182;28;20845;-85
2023/11/11 11:14:44;;;;;;;3.97;1.97;;;;;;;7.44;100.00;153271.16;4967676;28;20793;-84
2023/11/11 11:17:12;;;;;;;2.23;1.80;;;;;;;7.42;100.00;153264.69;4967121;28;20542;-85
2023/11/11 11:19:55;;;;;;;4.23;1.87;;;;;;;7.48;100.00;153280.22;4965979;28;20459;-84
2023/11/11 11:22:24;;;;;;;2.10;1.57;;;;;;;7.44;100.00;153269.91;4967023;28;21510;-85
2023/11/11 11:25:40;;;;;;;3.00;1.60;;;;;;;7.41;100.00;153263.44;4969095;28;20457;-85
2023/11/11 11:28:17;;;;;;;1.80;1.40;;;;;;;7.42;100.00;153266.00;4984242;28;20525;-85
2023/11/11 11:30:47;;;;;;;1.93;1.57;;;;;;;7.41;100.00;153262.16;4984000;28;20481;-84
2023/11/11 11:33:15;;;;;;;1.70;1.27;;;;;;;7.39;100.00;153258.25;4965810;28;20450;-84
2023/11/11 11:35:44;;;;;;;1.80;1.50;;;;;;;7.35;100.00;153249.25;4962876;28;20468;-83
2023/11/11 11:38:11;;;;;;;1.73;1.57;;;;;;;7.35;100.00;153247.94;4963563;28;20453;-84